Time;durP1;ratioP1;P1;durP2;ratioP2;P2;SDS_P1;SDS_P2;PMS_P1;PMS_P2;Temp;Humidity;BMP_temperature;BMP_pressure;BME280_temperature;BME280_humidity;BME280_pressure;Samples;Min_cycle;Max_cycle;Signal;HPM_P1;HPM_P2
2022/08/31 00:06:05;;;;;;;10.45;6.60;;;;;;;23.01;62.87;98632.25;5085205;28;20025;-56
2022/08/31 00:08:32;;;;;;;8.80;7.35;;;;;;;23.02;62.81;98632.09;5085095;28;20040;-56
2022/08/31 00:10:58;;;;;;;18.85;13.20;;;;;;;22.95;62.97;98622.25;5085544;28;20152;-56
2022/08/31 00:13:25;;;;;;;15.63;9.65;;;;;;;22.77;63.32;98620.25;5085171;28;20067;-55
2022/08/31 00:15:53;;;;;;;15.23;11.00;;;;;;;22.79;63.75;98622.75;5085160;28;20321;-56
2022/08/31 00:18:19;;;;;;;20.42;13.05;;;;;;;22.78;63.65;98621.13;5084779;28;20066;-56
2022/08/31 00:20:46;;;;;;;13.52;9.70;;;;;;;22.88;63.52;98629.88;5084759;28;20028;-56
2022/08/31 00:23:14;;;;;;;12.27;7.22;;;;;;;22.84;62.94;98624.00;5084951;28;20024;-56
2022/08/31 00:25:43;;;;;;;15.25;7.03;;;;;;;22.57;63.13;98593.00;5084485;28;20070;-55
2022/08/31 00:28:11;;;;;;;8.43;6.22;;;;;;;22.49;62.97;98593.69;5083910;28;20020;-55
2022/08/31 00:30:37;;;;;;;11.27;6.78;;;;;;;22.59;63.57;98643.88;5093497;28;20035;-55
2022/08/31 00:33:03;;;;;;;9.77;7.65;;;;;;;22.64;63.57;98635.53;5101016;28;20031;-56
2022/08/31 00:35:32;;;;;;;13.00;6.47;;;;;;;22.32;63.85;98594.31;5084665;28;20020;-56
2022/08/31 00:37:57;;;;;;;8.85;7.40;;;;;;;22.53;63.60;98639.09;5077485;28;20329;-55
2022/08/31 00:40:24;;;;;;;12.60;7.13;;;;;;;22.56;63.77;98637.06;5094884;28;20031;-55
2022/08/31 00:42:50;;;;;;;9.95;7.35;;;;;;;22.61;63.84;98641.09;5094270;28;20032;-54
2022/08/31 00:45:16;;;;;;;9.63;6.93;;;;;;;22.64;63.71;98638.16;5090229;28;20020;-55
2022/08/31 00:47:41;;;;;;;11.43;7.80;;;;;;;22.64;63.47;98643.44;5070622;28;20021;-55
2022/08/31 00:50:10;;;;;;;8.00;6.90;;;;;;;22.26;63.84;98594.84;5084520;28;20028;-54
2022/08/31 00:52:41;;;;;;;12.70;7.68;;;;;;;22.48;64.05;98641.34;5083102;28;20085;-54
2022/08/31 00:55:12;;;;;;;9.88;7.25;;;;;;;22.14;64.64;98594.97;5076683;28;20283;-54
2022/08/31 00:57:41;;;;;;;14.07;8.18;;;;;;;22.42;64.26;98634.78;5072783;28;20085;-55
2022/08/31 01:00:20;;;;;;;10.70;6.65;;;;;;;22.09;64.70;98596.31;5083490;28;20092;-55
2022/08/31 01:02:46;;;;;;;7.80;6.78;;;;;;;22.01;64.93;98605.72;5085426;28;20032;-55
2022/08/31 01:05:13;;;;;;;11.25;6.97;;;;;;;22.18;65.05;98632.47;5079759;28;20332;-55
2022/08/31 01:07:40;;;;;;;9.65;6.80;;;;;;;22.29;65.22;98636.78;5080205;28;20027;-55
2022/08/31 01:10:07;;;;;;;7.07;5.90;;;;;;;22.35;64.63;98625.75;5095808;28;20024;-55
2022/08/31 01:12:32;;;;;;;9.27;7.68;;;;;;;22.30;64.51;98627.91;5102339;28;20027;-55
2022/08/31 01:15:01;;;;;;;11.57;6.43;;;;;;;22.16;64.99;98618.56;5100682;28;20070;-55
2022/08/31 01:17:33;;;;;;;10.10;6.65;;;;;;;22.08;65.05;98603.41;5084241;28;20028;-55
2022/08/31 01:20:05;;;;;;;11.13;6.47;;;;;;;22.26;64.57;98622.09;5103807;28;20028;-56
2022/08/31 01:22:42;;;;;;;9.32;6.13;;;;;;;22.18;65.12;98625.38;5088019;28;20073;-56
2022/08/31 01:25:09;;;;;;;7.18;6.30;;;;;;;22.15;65.16;98624.81;5083649;28;20028;-55
2022/08/31 01:27:36;;;;;;;7.63;6.70;;;;;;;22.15;65.55;98623.00;5091108;28;20027;-55
2022/08/31 01:30:11;;;;;;;11.10;6.15;;;;;;;22.29;65.38;98619.16;5095416;28;20348;-55
2022/08/31 01:32:38;;;;;;;15.07;6.82;;;;;;;22.22;65.46;98618.88;5081359;28;20079;-56
2022/08/31 01:35:06;;;;;;;11.98;6.60;;;;;;;22.14;65.57;98607.31;5096645;28;20024;-56
2022/08/31 01:37:32;;;;;;;10.77;6.43;;;;;;;22.11;65.68;98618.97;5083875;28;20059;-56
2022/08/31 01:39:58;;;;;;;8.80;6.70;;;;;;;22.03;65.89;98621.41;5091570;28;20368;-55
2022/08/31 01:42:23;;;;;;;8.77;6.50;;;;;;;22.08;66.28;98613.97;5100369;28;20032;-56
2022/08/31 01:44:49;;;;;;;8.55;6.50;;;;;;;22.16;66.23;98606.22;5083466;28;20078;-56
2022/08/31 01:47:15;;;;;;;8.40;6.85;;;;;;;22.02;66.37;98604.78;5083149;28;20340;-56
2022/08/31 01:49:40;;;;;;;7.40;6.03;;;;;;;22.19;66.08;98610.38;5097542;28;20221;-56
2022/08/31 01:52:06;;;;;;;9.15;6.57;;;;;;;22.14;66.22;98608.13;5103409;28;20228;-56
2022/08/31 01:54:32;;;;;;;7.85;6.30;;;;;;;22.14;66.33;98612.59;5099016;28;20025;-57
2022/08/31 01:56:57;;;;;;;7.55;6.18;;;;;;;22.05;66.18;98606.31;5082846;28;20056;-57
2022/08/31 01:59:23;;;;;;;11.00;7.30;;;;;;;22.02;66.78;98598.69;5082992;28;20028;-57
2022/08/31 02:01:52;;;;;;;7.00;6.25;;;;;;;21.73;66.73;98565.09;5083193;28;20062;-55
2022/08/31 02:04:21;;;;;;;10.57;7.28;;;;;;;21.82;67.73;98601.22;5096401;28;20092;-54
2022/08/31 02:06:50;;;;;;;9.10;6.75;;;;;;;21.83;67.57;98610.81;5096714;28;20028;-55
2022/08/31 02:09:17;;;;;;;12.65;7.40;;;;;;;21.91;67.44;98609.31;5106713;28;20099;-55
2022/08/31 02:11:43;;;;;;;9.05;6.55;;;;;;;21.84;67.43;98604.56;5089854;28;20088;-54
2022/08/31 02:14:09;;;;;;;8.23;6.32;;;;;;;21.79;67.53;98598.00;5089501;28;20221;-55
2022/08/31 02:16:36;;;;;;;9.75;7.05;;;;;;;21.80;67.65;98595.22;5102766;28;20182;-55
2022/08/31 02:19:03;;;;;;;7.20;6.40;;;;;;;21.91;67.57;98594.31;5101626;28;20020;-55
2022/08/31 02:21:28;;;;;;;7.78;6.93;;;;;;;21.84;67.39;98604.56;5093494;28;20023;-55
2022/08/31 02:23:54;;;;;;;11.18;6.85;;;;;;;21.75;67.63;98586.91;5110352;28;20023;-55
2022/08/31 02:26:20;;;;;;;8.07;6.30;;;;;;;21.70;67.61;98592.53;5110039;28;20325;-55
2022/08/31 02:28:46;;;;;;;10.20;6.72;;;;;;;21.69;68.10;98603.22;5109964;28;20384;-56
2022/08/31 02:31:13;;;;;;;9.82;7.57;;;;;;;21.65;68.10;98599.19;5100646;28;20056;-56
2022/08/31 02:33:38;;;;;;;8.05;6.70;;;;;;;21.54;68.75;98598.28;5089344;28;20224;-56
2022/08/31 02:36:04;;;;;;;11.88;7.32;;;;;;;21.47;68.88;98589.19;5089673;28;20028;-57
2022/08/31 02:38:31;;;;;;;9.95;7.75;;;;;;;21.38;69.07;98596.09;5089735;28;20274;-57
2022/08/31 02:40:57;;;;;;;10.60;8.05;;;;;;;21.34;69.37;98584.13;5105420;28;20024;-56
2022/08/31 02:43:23;;;;;;;11.35;8.10;;;;;;;21.36;69.19;98586.63;5098621;28;20039;-56
2022/08/31 02:45:48;;;;;;;11.95;8.32;;;;;;;21.28;69.43;98586.47;5095705;28;20042;-56
2022/08/31 02:48:14;;;;;;;11.60;7.97;;;;;;;21.21;69.53;98584.31;5109733;28;20066;-56
2022/08/31 02:50:45;;;;;;;12.93;8.02;;;;;;;20.93;70.20;98551.56;5108297;28;20030;-56
2022/08/31 02:53:12;;;;;;;;;;;;;;;21.15;70.24;98584.84;5093812;28;20032;-56
2022/08/31 02:55:37;;;;;;;10.52;7.55;;;;;;;21.13;70.26;98586.75;5089536;28;19904;-55
2022/08/31 02:58:04;;;;;;;11.45;7.20;;;;;;;21.18;69.71;98583.75;5089362;28;20344;-56
2022/08/31 03:00:30;;;;;;;9.30;7.72;;;;;;;21.20;69.82;98587.91;5092592;28;20224;-56
2022/08/31 03:02:55;;;;;;;10.75;7.50;;;;;;;21.31;69.29;98589.66;5109553;28;20028;-56
2022/08/31 03:05:21;;;;;;;11.02;7.00;;;;;;;21.28;69.09;98589.09;5105912;28;20058;-56
2022/08/31 03:07:48;;;;;;;11.45;7.38;;;;;;;21.32;69.07;98586.06;5103854;28;20020;-56
2022/08/31 03:10:15;;;;;;;8.23;6.82;;;;;;;21.20;69.39;98579.19;5099930;28;20032;-55
2022/08/31 03:12:41;;;;;;;7.32;6.38;;;;;;;21.27;69.07;98580.34;5089551;28;20028;-56
2022/08/31 03:15:08;;;;;;;11.20;7.00;;;;;;;21.43;68.67;98586.97;5087927;28;20024;-57
2022/08/31 03:17:34;;;;;;;9.00;6.65;;;;;;;21.31;68.38;98575.66;5106142;28;20035;-57
2022/08/31 03:20:03;;;;;;;9.63;6.72;;;;;;;21.26;68.97;98576.03;5090128;28;20095;-56
2022/08/31 03:22:29;;;;;;;8.95;6.70;;;;;;;21.30;68.32;98576.63;5085817;28;20017;-56
2022/08/31 03:24:55;;;;;;;12.43;6.75;;;;;;;21.43;68.07;98586.97;5085880;28;20035;-57
2022/08/31 03:27:21;;;;;;;10.02;6.35;;;;;;;21.41;68.17;98595.00;5088149;28;20020;-57
2022/08/31 03:29:47;;;;;;;9.07;6.43;;;;;;;21.43;68.00;98579.06;5106296;28;20077;-56
2022/08/31 03:32:13;;;;;;;8.30;6.18;;;;;;;21.49;67.42;98576.75;5100128;28;20559;-55
2022/08/31 03:34:38;;;;;;;6.22;5.53;;;;;;;21.37;67.82;98578.59;5085867;28;20054;-55
2022/08/31 03:37:04;;;;;;;9.95;6.40;;;;;;;21.25;67.78;98569.13;5085806;28;20027;-56
2022/08/31 03:39:30;;;;;;;8.02;5.90;;;;;;;21.46;67.52;98577.03;5085696;28;20040;-56
2022/08/31 03:41:55;;;;;;;11.30;6.22;;;;;;;21.49;67.40;98579.38;5085489;28;20016;-56
2022/08/31 03:44:22;;;;;;;9.52;6.07;;;;;;;21.40;67.46;98572.25;5082703;28;20071;-55
2022/08/31 03:46:54;;;;;;;7.97;5.85;;;;;;;21.49;66.99;98573.25;5079368;28;20032;-56
2022/08/31 03:49:20;;;;;;;;;;;;;;;21.49;67.50;98576.75;5084883;28;20024;-56
2022/08/31 03:51:46;;;;;;;10.45;6.15;;;;;;;21.51;67.34;98566.94;5090165;28;20082;-56
2022/08/31 03:54:12;;;;;;;8.73;5.68;;;;;;;21.29;67.56;98552.09;5105115;28;20078;-56
2022/08/31 03:56:39;;;;;;;7.60;5.60;;;;;;;21.43;67.29;98574.63;5065446;28;20112;-56
2022/08/31 03:59:05;;;;;;;7.10;5.47;;;;;;;21.55;66.78;98564.88;5081287;28;20035;-56
2022/08/31 04:01:31;;;;;;;8.32;5.75;;;;;;;21.46;67.30;98569.13;5085176;28;20032;-56
2022/08/31 04:03:56;;;;;;;8.95;5.85;;;;;;;21.46;67.17;98561.22;5085230;28;20021;-56
2022/08/31 04:06:22;;;;;;;9.43;5.75;;;;;;;21.46;67.42;98563.84;5085106;28;20302;-57
2022/08/31 04:08:48;;;;;;;9.75;5.90;;;;;;;21.42;66.79;98562.44;5085148;28;20191;-56
2022/08/31 04:11:17;;;;;;;7.03;5.18;;;;;;;21.55;66.60;98559.63;5085152;28;20025;-56
2022/08/31 04:13:42;;;;;;;9.15;5.35;;;;;;;21.57;66.69;98560.31;5098185;28;20213;-56
2022/08/31 04:16:10;;;;;;;5.95;5.35;;;;;;;21.31;66.38;98507.19;5096902;28;20079;-57
2022/08/31 04:18:38;;;;;;;10.45;5.45;;;;;;;21.54;66.43;98544.78;5085010;28;20024;-56
2022/08/31 04:21:09;;;;;;;9.02;5.65;;;;;;;21.58;66.32;98554.09;5084796;28;20047;-56
2022/08/31 04:23:38;;;;;;;11.18;5.90;;;;;;;21.67;66.32;98555.09;5065103;28;20027;-57
2022/08/31 04:26:03;;;;;;;8.25;5.40;;;;;;;21.76;65.81;98550.81;5080536;28;20035;-56
2022/08/31 04:28:29;;;;;;;6.57;5.40;;;;;;;21.64;65.78;98558.81;5083562;28;20103;-56
2022/08/31 04:30:55;;;;;;;8.48;4.93;;;;;;;21.75;65.32;98554.41;5084638;28;20348;-55
2022/08/31 04:33:20;;;;;;;6.57;4.97;;;;;;;21.71;65.43;98551.22;5084737;28;20070;-56
2022/08/31 04:35:46;;;;;;;11.18;5.50;;;;;;;21.68;65.50;98560.22;5084679;28;20028;-56
2022/08/31 04:38:12;;;;;;;7.93;4.90;;;;;;;21.81;64.87;98560.00;5084287;28;20028;-56
2022/08/31 04:40:38;;;;;;;6.55;5.18;;;;;;;21.64;65.03;98537.75;5084494;28;20213;-56
2022/08/31 04:43:04;;;;;;;7.13;5.07;;;;;;;21.87;64.83;98556.00;5084372;28;20313;-57
2022/08/31 04:45:30;;;;;;;7.63;5.25;;;;;;;21.89;64.76;98556.72;5084248;28;20020;-57
2022/08/31 04:47:55;;;;;;;7.22;5.20;;;;;;;21.86;64.57;98551.69;5084288;28;20016;-57
2022/08/31 04:50:21;;;;;;;9.82;5.50;;;;;;;21.82;64.85;98566.97;5102407;28;20343;-57
2022/08/31 04:52:49;;;;;;;8.88;4.70;;;;;;;21.60;65.14;98567.94;5090646;28;20126;-56
2022/08/31 04:55:16;;;;;;;8.85;5.00;;;;;;;21.61;65.47;98571.44;5084016;28;20016;-56
2022/08/31 04:57:42;;;;;;;7.22;5.50;;;;;;;21.69;65.32;98571.59;5083892;28;20075;-56
2022/08/31 05:00:09;;;;;;;9.20;5.53;;;;;;;21.65;65.32;98564.94;5082915;28;20385;-56
2022/08/31 05:02:35;;;;;;;6.20;5.38;;;;;;;21.58;65.76;98576.94;5083240;28;20043;-56
2022/08/31 05:05:02;;;;;;;7.22;5.45;;;;;;;21.62;65.67;98565.19;5083556;28;20213;-58
2022/08/31 05:07:29;;;;;;;9.25;5.25;;;;;;;21.55;65.31;98534.09;5084076;28;20036;-57
2022/08/31 05:09:54;;;;;;;6.10;5.50;;;;;;;21.69;65.73;98568.97;5081840;28;20511;-56
2022/08/31 05:12:20;;;;;;;7.15;5.25;;;;;;;21.59;65.60;98563.66;5080887;28;20029;-56
2022/08/31 05:14:46;;;;;;;7.53;5.43;;;;;;;21.78;65.74;98562.09;5079161;28;20040;-56
2022/08/31 05:17:12;;;;;;;6.53;5.10;;;;;;;21.91;65.11;98562.69;5082849;28;20032;-57
2022/08/31 05:19:38;;;;;;;23.60;5.97;;;;;;;22.04;64.60;98557.19;5082959;28;20379;-57
2022/08/31 05:22:04;;;;;;;6.18;4.97;;;;;;;21.63;65.28;98564.22;5083343;28;20043;-57
2022/08/31 05:24:34;;;;;;;10.35;5.30;;;;;;;21.59;66.18;98568.09;5083410;28;20028;-56
2022/08/31 05:27:01;;;;;;;6.60;4.78;;;;;;;21.66;65.97;98563.97;5083461;28;20231;-56
2022/08/31 05:29:27;;;;;;;6.55;4.50;;;;;;;21.92;65.45;98560.88;5083572;28;20024;-57
2022/08/31 05:31:53;;;;;;;7.30;5.43;;;;;;;21.86;65.49;98554.31;5083358;28;20066;-57
2022/08/31 05:34:20;;;;;;;9.57;4.97;;;;;;;21.74;65.33;98573.84;5083068;28;20044;-56
2022/08/31 05:36:51;;;;;;;8.02;4.57;;;;;;;21.59;65.40;98510.13;5087916;28;20030;-56
2022/08/31 05:39:17;;;;;;;7.60;4.47;;;;;;;21.83;64.87;98555.44;5103041;28;20028;-56
2022/08/31 05:41:45;;;;;;;9.75;4.55;;;;;;;21.76;65.16;98549.00;5083412;28;20449;-57
2022/08/31 05:44:11;;;;;;;7.88;4.95;;;;;;;21.73;65.42;98557.19;5099443;28;20024;-56
2022/08/31 05:46:37;;;;;;;16.63;4.68;;;;;;;21.89;64.96;98560.19;5103471;28;20297;-56
2022/08/31 05:49:05;;;;;;;5.13;4.15;;;;;;;22.02;64.35;98552.03;5081043;28;20032;-56
2022/08/31 05:51:31;;;;;;;11.57;4.30;;;;;;;22.20;63.97;98559.28;5078820;28;20029;-57
2022/08/31 05:53:59;;;;;;;9.18;4.70;;;;;;;22.18;64.25;98563.88;5083275;28;20078;-56
2022/08/31 05:56:25;;;;;;;5.90;4.70;;;;;;;22.03;64.52;98564.25;5083169;28;20064;-57
2022/08/31 05:58:51;;;;;;;7.35;4.78;;;;;;;22.01;64.04;98565.34;5083281;28;20028;-56
2022/08/31 06:01:23;;;;;;;21.70;5.28;;;;;;;21.71;65.41;98565.22;5091963;28;20032;-55
2022/08/31 06:03:50;;;;;;;8.60;4.68;;;;;;;21.88;65.43;98571.69;5090316;28;20347;-57
2022/08/31 06:06:16;;;;;;;6.88;4.90;;;;;;;21.92;64.64;98569.63;5080728;28;20052;-57
2022/08/31 06:08:42;;;;;;;12.20;5.57;;;;;;;21.99;65.15;98575.19;5082996;28;20095;-57
2022/08/31 06:11:16;;;;;;;10.55;5.15;;;;;;;21.86;64.70;98562.22;5082944;28;20090;-58
2022/08/31 06:13:42;;;;;;;12.88;5.20;;;;;;;21.98;64.54;98589.38;5079332;28;20047;-57
2022/08/31 06:16:08;;;;;;;10.70;6.70;;;;;;;21.97;64.99;98595.59;5081263;28;20016;-57
2022/08/31 06:18:37;;;;;;;7.05;5.15;;;;;;;22.06;64.56;98597.41;5083571;28;20020;-58
2022/08/31 06:21:07;;;;;;;8.77;5.32;;;;;;;21.60;64.45;98561.84;5101770;28;20028;-57
2022/08/31 06:23:38;;;;;;;16.33;5.75;;;;;;;21.55;65.04;98565.72;5082890;28;20348;-56
2022/08/31 06:26:11;;;;;;;17.13;5.38;;;;;;;21.80;65.05;98602.31;5087970;28;20209;-56
2022/08/31 06:28:49;;;;;;;12.15;5.28;;;;;;;21.85;64.17;98623.84;5080746;28;20035;-56
2022/08/31 06:31:26;;;;;;;10.07;5.28;;;;;;;21.76;64.44;98632.53;5081825;28;20096;-57
2022/08/31 06:33:54;;;;;;;7.05;4.32;;;;;;;21.59;64.13;98612.88;5084260;28;20031;-56
2022/08/31 06:36:23;;;;;;;8.35;5.00;;;;;;;21.55;64.18;98615.78;5082540;28;20040;-57
2022/08/31 06:38:48;;;;;;;9.38;5.18;;;;;;;21.52;64.26;98612.56;5082380;28;20245;-57
2022/08/31 06:41:20;;;;;;;9.63;4.43;;;;;;;21.49;63.96;98628.59;5082203;28;20349;-57
2022/08/31 06:43:46;;;;;;;7.57;4.80;;;;;;;21.72;63.58;98624.06;5082392;28;20091;-57
2022/08/31 06:46:12;;;;;;;9.30;4.57;;;;;;;21.60;63.25;98620.66;5082351;28;20017;-57
2022/08/31 06:48:40;;;;;;;11.23;4.32;;;;;;;21.59;62.38;98615.50;5082642;28;20187;-58
2022/08/31 06:51:07;;;;;;;6.13;3.50;;;;;;;21.62;62.36;98612.63;5082140;28;20059;-58
2022/08/31 06:53:39;;;;;;;8.63;4.15;;;;;;;21.75;61.95;98610.63;5086360;28;20036;-58
2022/08/31 06:56:12;;;;;;;8.10;4.28;;;;;;;21.69;61.40;98571.59;5086408;28;20048;-57
2022/08/31 06:58:38;;;;;;;5.88;3.60;;;;;;;22.11;60.57;98613.69;5093185;28;20335;-57
2022/08/31 07:01:13;;;;;;;5.35;3.35;;;;;;;22.03;60.52;98616.16;5086212;28;20312;-57
2022/08/31 07:03:42;;;;;;;7.38;3.63;;;;;;;21.89;60.09;98599.72;5086234;28;20110;-57
2022/08/31 07:06:21;;;;;;;4.32;2.70;;;;;;;21.91;59.53;98627.78;5086041;28;20308;-57
2022/08/31 07:08:53;;;;;;;5.32;2.70;;;;;;;21.92;59.75;98613.59;5066346;28;20068;-57
2022/08/31 07:11:26;;;;;;;5.50;3.28;;;;;;;21.34;60.04;98565.69;5082978;28;20209;-57
2022/08/31 07:13:53;;;;;;;5.18;3.10;;;;;;;21.52;60.38;98615.19;5085764;28;20024;-56
2022/08/31 07:16:21;;;;;;;7.93;3.40;;;;;;;21.14;60.75;98564.75;5085235;28;20082;-57
2022/08/31 07:18:48;;;;;;;4.72;3.13;;;;;;;21.47;61.50;98602.38;5085881;28;20033;-57
2022/08/31 07:21:23;;;;;;;6.28;3.17;;;;;;;21.11;61.25;98558.91;5085934;28;20078;-56
2022/08/31 07:23:49;;;;;;;5.45;3.33;;;;;;;21.48;61.24;98609.31;5086179;28;20061;-56
2022/08/31 07:26:42;;;;;;;4.60;3.35;;;;;;;21.36;61.58;98605.94;5085852;28;20074;-55
2022/08/31 07:29:10;;;;;;;7.57;3.78;;;;;;;21.58;61.61;98600.66;5099974;28;20048;-56
2022/08/31 07:31:44;;;;;;;6.43;3.08;;;;;;;21.77;60.81;98592.03;5095433;28;20024;-55
2022/08/31 07:34:24;;;;;;;6.32;3.42;;;;;;;21.67;61.15;98605.16;5084730;28;20046;-56
2022/08/31 07:42:25;;;;;;;4.35;2.92;;;;;;;21.69;61.53;98608.50;5084011;28;20066;-56
2022/08/31 07:44:53;;;;;;;7.15;3.38;;;;;;;21.47;61.35;98568.13;5085200;28;20035;-56
2022/08/31 07:47:19;;;;;;;8.52;3.67;;;;;;;21.60;62.00;98609.28;5085472;28;20017;-57
2022/08/31 07:49:50;;;;;;;6.57;3.50;;;;;;;21.53;61.90;98604.53;5085337;28;20016;-56
2022/08/31 07:52:22;;;;;;;5.00;3.00;;;;;;;21.31;61.67;98573.03;5085264;28;20066;-55
2022/08/31 07:54:50;;;;;;;6.28;3.40;;;;;;;21.59;61.58;98607.59;5084832;28;20029;-56
2022/08/31 07:57:17;;;;;;;5.65;3.03;;;;;;;21.16;62.36;98614.63;5085400;28;20052;-56
2022/08/31 07:59:45;;;;;;;7.38;3.35;;;;;;;21.12;62.92;98615.84;5085142;28;20419;-56
2022/08/31 08:02:13;;;;;;;6.57;3.65;;;;;;;21.14;62.95;98614.78;5100189;28;20016;-56
2022/08/31 08:04:42;;;;;;;6.90;3.03;;;;;;;21.24;62.72;98621.91;5094372;28;20021;-56
2022/08/31 08:07:10;;;;;;;8.10;3.38;;;;;;;21.31;62.83;98612.53;5085446;28;20028;-56
2022/08/31 08:09:37;;;;;;;7.38;3.28;;;;;;;20.99;63.33;98602.88;5085028;28;20032;-56
2022/08/31 08:12:06;;;;;;;9.75;3.90;;;;;;;21.11;63.22;98615.03;5085035;28;20325;-57
2022/08/31 08:14:34;;;;;;;8.93;3.65;;;;;;;21.13;62.92;98597.28;5084893;28;20240;-56
2022/08/31 08:17:01;;;;;;;10.70;3.70;;;;;;;21.35;63.12;98616.59;5085163;28;20066;-56
2022/08/31 08:19:27;;;;;;;4.32;2.67;;;;;;;21.19;63.41;98620.50;5084734;28;20036;-56
2022/08/31 08:21:54;;;;;;;3.75;3.13;;;;;;;21.12;63.62;98614.06;5083369;28;20024;-57
2022/08/31 08:24:20;;;;;;;3.72;2.60;;;;;;;21.02;64.13;98621.03;5084589;28;20040;-56
2022/08/31 08:26:49;;;;;;;4.95;2.75;;;;;;;20.68;63.95;98579.06;5084511;28;20041;-55
2022/08/31 08:29:16;;;;;;;5.95;2.80;;;;;;;21.02;63.99;98632.41;5084343;28;20087;-56
2022/08/31 08:31:43;;;;;;;5.88;2.67;;;;;;;21.19;63.50;98622.28;5084119;28;20061;-57
2022/08/31 08:34:09;;;;;;;4.05;2.42;;;;;;;21.18;62.59;98626.72;5083947;28;20058;-56
2022/08/31 08:36:36;;;;;;;4.95;2.70;;;;;;;21.30;62.33;98619.59;5084421;28;20036;-56
2022/08/31 08:39:08;;;;;;;3.45;2.60;;;;;;;21.23;62.75;98628.16;5084088;28;20062;-56
2022/08/31 08:41:36;;;;;;;6.57;3.05;;;;;;;21.34;62.81;98628.09;5082005;28;20047;-57
2022/08/31 08:44:07;;;;;;;5.22;2.67;;;;;;;21.14;62.13;98575.28;5084588;28;20135;-56
2022/08/31 08:46:54;;;;;;;7.32;2.95;;;;;;;21.44;61.60;98618.44;5081417;28;20024;-57
2022/08/31 08:49:39;;;;;;;9.45;2.70;;;;;;;21.14;61.99;98591.06;5082748;28;20335;-57
2022/08/31 08:52:24;;;;;;;6.78;2.97;;;;;;;21.38;63.18;98632.97;5097391;28;20094;-56
2022/08/31 08:54:52;;;;;;;5.20;2.58;;;;;;;21.07;64.06;98589.91;5083401;28;20036;-56
2022/08/31 08:57:23;;;;;;;4.43;2.80;;;;;;;21.12;65.24;98631.66;5083760;28;20103;-56
2022/08/31 08:59:52;;;;;;;5.88;2.78;;;;;;;21.16;64.58;98630.44;5083705;28;20043;-57
2022/08/31 09:02:24;;;;;;;5.07;2.50;;;;;;;21.14;65.15;98635.84;5083639;28;20016;-57
2022/08/31 09:05:05;;;;;;;;;;;;;;;21.11;66.82;98630.00;5084585;28;20102;-57
2022/08/31 09:07:43;;;;;;;5.72;2.60;;;;;;;21.20;65.26;98631.84;5083715;28;19904;-56
2022/08/31 09:10:30;;;;;;;5.72;2.90;;;;;;;21.10;65.73;98597.56;5084898;28;20020;-60
2022/08/31 09:13:21;;;;;;;6.30;2.70;;;;;;;21.32;64.64;98633.50;5082636;28;20099;-58
2022/08/31 09:15:50;;;;;;;6.30;3.58;;;;;;;21.48;64.08;98629.56;5078740;28;20024;-56
2022/08/31 09:18:37;;;;;;;6.35;2.92;;;;;;;21.44;63.79;98633.44;5083476;28;20032;-55
2022/08/31 09:21:22;;;;;;;5.15;3.30;;;;;;;21.28;63.18;98586.47;5084940;28;20028;-57
2022/08/31 09:24:04;;;;;;;4.28;2.35;;;;;;;21.40;62.66;98584.59;5085725;28;20020;-57
2022/08/31 09:26:45;;;;;;;5.32;2.50;;;;;;;21.75;62.86;98636.97;5081889;28;20043;-57
2022/08/31 09:29:20;;;;;;;8.32;2.67;;;;;;;21.52;61.97;98638.91;5082072;28;20269;-57
2022/08/31 09:31:46;;;;;;;10.30;2.88;;;;;;;21.50;61.92;98640.81;5092448;28;20028;-57
2022/08/31 09:34:30;;;;;;;3.20;2.03;;;;;;;21.23;62.44;98596.53;5095709;28;20217;-56
2022/08/31 09:37:21;;;;;;;7.65;2.40;;;;;;;21.52;62.32;98647.66;5081340;28;20100;-57
2022/08/31 09:39:49;;;;;;;7.28;2.90;;;;;;;21.40;62.36;98632.84;5082963;28;20304;-57
2022/08/31 09:42:29;;;;;;;4.28;2.40;;;;;;;21.37;62.39;98618.13;5083358;28;20034;-57
2022/08/31 09:44:59;;;;;;;2.40;2.20;;;;;;;21.54;62.21;98652.78;5082760;28;20021;-57
2022/08/31 09:47:40;;;;;;;7.93;2.55;;;;;;;21.28;62.52;98610.19;5082271;28;20087;-58
2022/08/31 09:50:08;;;;;;;;;;;;;;;21.64;62.46;98647.59;5087658;28;20024;-57
2022/08/31 09:55:24;;;;;;;3.10;2.40;;;;;;;21.18;62.12;98605.66;5082065;28;20036;-56
2022/08/31 09:58:07;;;;;;;7.20;2.72;;;;;;;21.18;61.79;98604.84;5083762;28;20051;-56
2022/08/31 10:00:35;;;;;;;4.28;2.40;;;;;;;21.60;61.33;98660.19;5083572;28;20100;-57
2022/08/31 10:03:12;;;;;;;1.90;1.67;;;;;;;21.60;60.75;98672.53;5081228;28;20036;-57
2022/08/31 10:05:39;;;;;;;3.05;1.90;;;;;;;21.64;61.13;98661.59;5083333;28;20021;-56
2022/08/31 10:08:30;;;;;;;4.10;1.83;;;;;;;21.72;60.37;98663.59;5083039;28;20305;-56
2022/08/31 10:11:01;;;;;;;5.43;1.85;;;;;;;21.43;60.46;98643.13;5083848;28;20052;-57
2022/08/31 10:13:38;;;;;;;7.97;1.95;;;;;;;21.78;60.64;98665.72;5083146;28;20055;-57
2022/08/31 10:16:21;;;;;;;3.33;2.00;;;;;;;21.54;60.08;98606.19;5083546;28;20099;-56
2022/08/31 10:18:54;;;;;;;3.65;2.05;;;;;;;22.03;59.41;98663.59;5083318;28;20082;-57
2022/08/31 10:21:27;;;;;;;3.50;1.95;;;;;;;22.18;59.13;98664.94;5076850;28;20467;-58
2022/08/31 10:24:25;;;;;;;5.15;2.17;;;;;;;21.81;58.09;98619.81;5083925;28;20044;-57
2022/08/31 10:27:02;;;;;;;6.05;2.00;;;;;;;22.01;58.99;98655.84;5086933;28;20032;-58
2022/08/31 10:29:38;;;;;;;3.85;2.00;;;;;;;22.04;58.68;98676.66;5083916;28;20079;-58
2022/08/31 10:32:22;;;;;;;4.47;1.83;;;;;;;22.02;58.98;98672.50;5081169;28;20306;-58
2022/08/31 10:35:13;;;;;;;2.78;1.88;;;;;;;21.83;59.44;98615.22;5084820;28;20021;-58
2022/08/31 10:37:57;;;;;;;4.35;2.30;;;;;;;21.97;60.05;98648.31;5088780;28;20065;-58
2022/08/31 10:40:34;;;;;;;5.20;2.17;;;;;;;21.91;60.47;98665.50;5086626;28;20028;-58
2022/08/31 10:43:07;;;;;;;2.50;2.10;;;;;;;21.77;60.01;98621.84;5086544;28;20039;-58
2022/08/31 10:45:38;;;;;;;2.92;2.10;;;;;;;22.04;60.25;98675.84;5086170;28;20028;-58
2022/08/31 10:48:04;;;;;;;2.47;2.10;;;;;;;21.94;60.24;98677.59;5086148;28;20100;-58
2022/08/31 10:50:44;;;;;;;4.57;1.98;;;;;;;21.68;59.74;98635.84;5085792;28;20193;-58
2022/08/31 10:53:31;;;;;;;4.00;2.20;;;;;;;21.70;61.89;98689.22;5083860;28;20025;-58
2022/08/31 10:56:13;;;;;;;5.43;1.90;;;;;;;21.44;63.55;98650.06;5086185;28;20017;-63
2022/08/31 10:58:47;;;;;;;3.90;2.00;;;;;;;21.55;62.96;98692.19;5085988;28;20040;-57
2022/08/31 11:01:27;;;;;;;3.85;1.75;;;;;;;21.31;63.58;98646.78;5086446;28;20032;-58
2022/08/31 11:04:20;;;;;;;7.15;2.10;;;;;;;21.41;63.73;98697.75;5086739;28;20040;-58
2022/08/31 11:06:53;;;;;;;5.45;1.65;;;;;;;21.53;63.27;98682.72;5083137;28;20361;-58
2022/08/31 11:09:26;;;;;;;3.58;1.88;;;;;;;21.63;63.53;98685.44;5086342;28;20043;-58
2022/08/31 11:12:05;;;;;;;3.38;1.77;;;;;;;21.70;62.61;98639.16;5086488;28;20058;-57
2022/08/31 11:14:44;;;;;;;2.75;1.85;;;;;;;22.10;63.06;98685.84;5097550;28;20036;-58
2022/08/31 11:17:49;;;;;;;3.55;2.20;;;;;;;21.79;63.82;98680.56;5085548;28;20085;-57
2022/08/31 11:20:38;;;;;;;5.30;2.05;;;;;;;21.77;62.76;98676.38;5085234;28;20024;-57
2022/08/31 11:23:32;;;;;;;2.25;1.77;;;;;;;21.97;63.39;98682.59;5094035;28;20036;-57
2022/08/31 11:26:15;;;;;;;5.65;1.88;;;;;;;22.16;61.41;98677.44;5105213;28;20221;-57
2022/08/31 11:28:47;;;;;;;3.95;1.67;;;;;;;22.29;61.46;98674.56;5092663;28;20025;-57
2022/08/31 11:31:22;;;;;;;5.20;1.77;;;;;;;22.37;60.40;98685.31;5085007;28;20032;-56
2022/08/31 11:33:56;;;;;;;7.50;2.75;;;;;;;22.04;59.73;98652.09;5084782;28;20036;-57
2022/08/31 11:36:44;;;;;;;5.80;1.35;;;;;;;22.31;59.75;98688.44;5085569;28;20033;-57
2022/08/31 11:39:35;;;;;;;4.47;1.40;;;;;;;22.19;60.91;98700.91;5085846;28;20055;-60
2022/08/31 11:42:14;;;;;;;7.25;1.88;;;;;;;21.76;61.86;98654.44;5065620;28;20025;-60
2022/08/31 11:44:40;;;;;;;9.77;1.58;;;;;;;21.89;62.44;98709.63;5082864;28;20016;-60
2022/08/31 11:47:27;;;;;;;4.32;1.75;;;;;;;21.60;62.59;98688.34;5085599;28;20041;-60
2022/08/31 11:50:03;;;;;;;4.10;1.20;;;;;;;21.66;61.54;98708.91;5085374;28;20328;-61
2022/08/31 11:52:39;;;;;;;3.60;1.60;;;;;;;21.38;62.32;98645.31;5085368;28;20032;-60
2022/08/31 11:55:15;;;;;;;1.48;1.30;;;;;;;21.47;63.74;98699.84;5085475;28;20103;-60
2022/08/31 11:58:06;;;;;;;8.35;1.85;;;;;;;21.45;64.28;98704.44;5085905;28;20097;-61
2022/08/31 12:00:57;;;;;;;3.55;1.80;;;;;;;21.02;64.38;98650.00;5085526;28;20312;-62